Time;durP1;ratioP1;P1;durP2;ratioP2;P2;SDS_P1;SDS_P2;PMS_P1;PMS_P2;Temp;Humidity;BMP_temperature;BMP_pressure;BME280_temperature;BME280_humidity;BME280_pressure;Samples;Min_cycle;Max_cycle;Signal;HPM_P1;HPM_P2
2023/09/07 00:01:55;;;;;;;8.20;5.47;;;19.80;99.90;;;;;;5136180;27;20341;-78
2023/09/07 00:04:22;;;;;;;6.18;5.18;;;19.80;99.90;;;;;;5136355;27;20577;-75
2023/09/07 00:06:49;;;;;;;9.13;6.00;;;19.80;99.90;;;;;;5120208;27;20129;-76
2023/09/07 00:09:18;;;;;;;7.03;5.78;;;19.70;99.90;;;;;;5110290;27;20054;-75
2023/09/07 00:11:45;;;;;;;8.55;5.93;;;19.70;99.90;;;;;;5139405;27;20491;-74
2023/09/07 00:14:10;;;;;;;6.93;6.35;;;19.60;99.90;;;;;;5135115;27;20051;-75
2023/09/07 00:16:38;;;;;;;6.60;5.25;;;19.60;99.90;;;;;;5135239;27;20428;-76
2023/09/07 00:19:04;;;;;;;5.82;5.03;;;19.60;99.90;;;;;;5139153;27;20166;-74
2023/09/07 00:21:30;;;;;;;5.68;5.05;;;19.60;99.90;;;;;;5142721;27;20081;-74
2023/09/07 00:23:56;;;;;;;9.90;6.43;;;19.50;99.90;;;;;;5134890;27;20161;-76
2023/09/07 00:26:22;;;;;;;6.25;4.85;;;19.50;99.90;;;;;;5131532;27;20050;-74
2023/09/07 00:28:47;;;;;;;5.95;5.35;;;19.50;99.90;;;;;;5145303;27;20071;-77
2023/09/07 00:31:13;;;;;;;6.20;5.32;;;19.50;99.90;;;;;;5143917;27;20051;-77
2023/09/07 00:33:39;;;;;;;7.03;5.80;;;19.40;99.90;;;;;;5138992;27;20042;-77
2023/09/07 00:36:05;;;;;;;6.22;5.63;;;19.40;99.90;;;;;;5131731;27;20593;-76
2023/09/07 00:38:30;;;;;;;6.60;5.65;;;18.80;99.90;;;;;;5112949;27;20153;-74
2023/09/07 00:40:56;;;;;;;9.80;5.85;;;19.40;99.90;;;;;;5132579;27;20051;-78
2023/09/07 00:43:22;;;;;;;7.80;5.35;;;19.30;99.90;;;;;;5135939;27;20479;-75
2023/09/07 00:45:48;;;;;;;8.27;6.25;;;19.30;99.90;;;;;;5142109;27;20038;-75
2023/09/07 00:48:16;;;;;;;8.02;6.13;;;19.30;99.90;;;;;;5132679;27;20039;-76
2023/09/07 00:50:43;;;;;;;6.80;6.10;;;19.20;99.90;;;;;;5140079;27;20047;-74
2023/09/07 00:53:10;;;;;;;6.63;5.70;;;19.20;99.90;;;;;;5124190;27;20058;-76
2023/09/07 00:55:37;;;;;;;10.30;6.45;;;19.20;99.90;;;;;;5143430;27;20057;-74
2023/09/07 00:58:04;;;;;;;7.28;5.72;;;19.20;99.90;;;;;;5145050;27;20039;-73
2023/09/07 01:00:30;;;;;;;6.13;5.57;;;19.20;99.90;;;;;;5142418;27;20130;-75
2023/09/07 01:02:56;;;;;;;5.70;5.18;;;19.10;99.90;;;;;;5126472;27;20051;-76
2023/09/07 01:05:27;;;;;;;6.40;5.80;;;19.10;99.90;;;;;;5144033;27;20039;-74
2023/09/07 01:07:58;;;;;;;7.25;5.60;;;19.10;99.90;;;;;;5142377;27;20122;-73
2023/09/07 01:10:24;;;;;;;5.50;5.00;;;19.00;99.90;;;;;;5123227;27;20392;-75
2023/09/07 01:12:49;;;;;;;7.30;5.88;;;19.00;99.90;;;;;;5143381;27;20042;-74
2023/09/07 01:15:15;;;;;;;7.75;6.18;;;18.90;99.90;;;;;;5137803;27;20039;-79
2023/09/07 01:17:42;;;;;;;6.47;5.60;;;18.90;99.90;;;;;;5139384;27;20049;-75
2023/09/07 01:20:12;;;;;;;6.47;5.78;;;18.90;99.90;;;;;;5105174;27;20050;-76
2023/09/07 01:22:39;;;;;;;6.55;5.72;;;18.90;99.90;;;;;;5144498;27;20046;-74
2023/09/07 01:25:06;;;;;;;6.13;5.57;;;18.80;99.90;;;;;;5139997;27;20065;-76
2023/09/07 01:27:33;;;;;;;7.25;5.80;;;18.80;99.90;;;;;;5142829;27;20054;-75
2023/09/07 01:29:59;;;;;;;7.13;6.43;;;18.80;99.90;;;;;;5139787;27;20058;-76
2023/09/07 01:32:26;;;;;;;10.60;7.20;;;18.70;99.90;;;;;;5121658;27;20608;-74
2023/09/07 01:34:56;;;;;;;8.70;6.80;;;18.70;99.90;;;;;;5141332;27;20656;-74
2023/09/07 01:37:22;;;;;;;8.55;6.47;;;18.60;99.90;;;;;;5133293;27;20043;-74
2023/09/07 01:39:49;;;;;;;7.00;6.32;;;18.60;99.90;;;;;;5138479;27;20517;-77
2023/09/07 01:42:14;;;;;;;6.65;5.85;;;18.50;99.90;;;;;;5126018;27;20074;-75
2023/09/07 01:44:40;;;;;;;6.60;5.95;;;18.50;99.90;;;;;;5137932;27;20085;-75
2023/09/07 01:47:06;;;;;;;8.40;6.78;;;18.50;99.90;;;;;;5111920;27;20633;-74
2023/09/07 01:49:32;;;;;;;6.25;5.65;;;18.40;99.90;;;;;;5143430;27;20806;-74
2023/09/07 01:51:57;;;;;;;6.97;6.35;;;18.40;99.90;;;;;;5141599;27;20512;-75
2023/09/07 01:54:23;;;;;;;8.48;7.07;;;18.40;99.90;;;;;;5123575;27;20055;-74
2023/09/07 01:56:49;;;;;;;7.95;6.25;;;18.30;99.90;;;;;;5142376;27;20039;-74
2023/09/07 01:59:14;;;;;;;7.22;6.22;;;18.30;99.90;;;;;;5144240;27;20061;-76
2023/09/07 02:01:40;;;;;;;6.30;5.78;;;18.20;99.90;;;;;;5106924;27;20100;-74
2023/09/07 02:04:06;;;;;;;10.93;7.75;;;18.30;99.90;;;;;;5133729;27;20060;-75
2023/09/07 02:06:32;;;;;;;7.53;6.38;;;18.20;99.90;;;;;;5126599;27;20042;-75
2023/09/07 02:08:58;;;;;;;6.57;5.97;;;18.10;99.90;;;;;;5142379;27;20050;-74
2023/09/07 02:11:23;;;;;;;8.63;7.18;;;18.10;99.90;;;;;;5142425;27;20050;-74
2023/09/07 02:13:49;;;;;;;8.23;6.45;;;18.00;99.90;;;;;;5132721;27;20050;-74
2023/09/07 02:16:15;;;;;;;7.22;6.35;;;18.00;99.90;;;;;;5123553;27;20043;-73
2023/09/07 02:18:45;;;;;;;7.28;6.57;;;18.00;99.90;;;;;;5135557;27;20101;-77
2023/09/07 02:21:11;;;;;;;9.35;7.35;;;17.90;99.90;;;;;;5124498;27;20863;-76
2023/09/07 02:23:37;;;;;;;7.10;5.70;;;17.90;99.90;;;;;;5110112;27;20126;-74
2023/09/07 02:26:03;;;;;;;8.43;5.80;;;17.90;99.90;;;;;;5141150;27;20111;-75
2023/09/07 02:28:29;;;;;;;6.78;5.97;;;17.80;99.90;;;;;;5106904;27;20078;-75
2023/09/07 02:31:02;;;;;;;6.43;5.55;;;17.80;99.90;;;;;;5117741;27;20260;-74
2023/09/07 02:33:28;;;;;;;9.23;6.00;;;17.80;99.90;;;;;;5135927;27;20044;-74
2023/09/07 02:35:54;;;;;;;6.22;5.63;;;17.80;99.90;;;;;;5112775;27;20050;-76
2023/09/07 02:38:19;;;;;;;9.43;6.05;;;17.70;99.90;;;;;;5128092;27;20094;-74
2023/09/07 02:40:45;;;;;;;8.18;6.40;;;17.80;99.90;;;;;;5132956;27;20039;-75
2023/09/07 02:43:11;;;;;;;9.38;6.75;;;17.70;99.90;;;;;;5107161;27;20124;-75
2023/09/07 02:45:38;;;;;;;7.22;6.25;;;17.70;99.90;;;;;;5106698;27;20057;-74
2023/09/07 02:48:05;;;;;;;7.43;6.45;;;17.70;99.90;;;;;;5121289;27;20050;-73
2023/09/07 02:50:33;;;;;;;7.50;6.72;;;17.70;99.90;;;;;;5127430;27;20148;-73
2023/09/07 02:53:00;;;;;;;9.10;7.35;;;17.60;99.90;;;;;;5142969;27;20099;-75
2023/09/07 02:55:26;;;;;;;7.80;6.82;;;17.60;99.90;;;;;;5128378;27;20041;-74
2023/09/07 02:57:52;;;;;;;7.85;6.30;;;17.60;99.90;;;;;;5141564;27;20042;-75
2023/09/07 03:00:18;;;;;;;7.15;6.32;;;17.50;99.90;;;;;;5139160;27;20039;-78
2023/09/07 03:02:44;;;;;;;7.55;6.88;;;17.50;99.90;;;;;;5122582;27;20088;-75
2023/09/07 03:05:10;;;;;;;9.32;7.30;;;17.50;99.90;;;;;;5103219;27;20051;-75
2023/09/07 03:07:39;;;;;;;9.93;7.15;;;17.50;99.90;;;;;;5108060;27;20535;-74
2023/09/07 03:10:05;;;;;;;8.15;6.95;;;17.50;99.90;;;;;;5122048;27;20050;-74
2023/09/07 03:12:30;;;;;;;7.35;6.63;;;17.40;99.90;;;;;;5130364;27;20758;-74
2023/09/07 03:14:56;;;;;;;7.40;6.70;;;17.40;99.90;;;;;;5134824;27;20130;-75
2023/09/07 03:17:22;;;;;;;9.95;6.93;;;17.50;99.90;;;;;;5135500;27;20045;-75
2023/09/07 03:19:48;;;;;;;8.43;6.70;;;17.50;99.90;;;;;;5142529;27;20046;-74
2023/09/07 03:22:14;;;;;;;9.65;6.90;;;17.40;99.90;;;;;;5140437;27;20050;-74
2023/09/07 03:24:40;;;;;;;9.43;7.22;;;17.40;99.90;;;;;;5140004;27;20046;-74
2023/09/07 03:27:06;;;;;;;7.93;7.20;;;17.40;99.90;;;;;;5122606;27;20043;-75
2023/09/07 03:29:33;;;;;;;11.25;7.30;;;17.40;99.90;;;;;;5141688;27;20061;-74
2023/09/07 03:32:00;;;;;;;9.63;7.10;;;17.40;99.90;;;;;;5140083;27;20094;-76
2023/09/07 03:34:25;;;;;;;7.88;6.35;;;17.40;99.90;;;;;;5122534;27;20050;-74
2023/09/07 03:36:51;;;;;;;11.00;6.70;;;17.40;99.90;;;;;;5140192;27;20103;-74
2023/09/07 03:39:18;;;;;;;8.43;7.63;;;17.40;99.90;;;;;;5123557;27;20149;-74
2023/09/07 03:41:45;;;;;;;9.18;8.07;;;17.40;99.90;;;;;;5139835;27;20050;-76
2023/09/07 03:44:10;;;;;;;9.60;8.15;;;17.30;99.90;;;;;;5107809;28;20043;-75
2023/09/07 03:46:36;;;;;;;8.25;7.35;;;17.30;99.90;;;;;;5133068;27;20103;-74
2023/09/07 03:49:02;;;;;;;8.45;6.97;;;17.20;99.90;;;;;;5133847;27;20055;-73
2023/09/07 03:51:28;;;;;;;8.07;7.28;;;17.20;99.90;;;;;;5094910;27;20043;-74
2023/09/07 03:53:54;;;;;;;7.05;6.35;;;17.20;99.90;;;;;;5123368;27;20043;-74
2023/09/07 03:56:20;;;;;;;8.23;7.43;;;17.10;99.90;;;;;;5141505;27;20058;-75
2023/09/07 03:58:47;;;;;;;8.65;6.22;;;17.10;99.90;;;;;;5142253;27;20042;-74
2023/09/07 04:01:13;;;;;;;10.05;7.38;;;17.10;99.90;;;;;;5109673;27;20054;-73
2023/09/07 04:03:40;;;;;;;10.57;7.63;;;17.10;99.90;;;;;;5141188;27;20764;-76
2023/09/07 04:06:06;;;;;;;8.52;6.45;;;17.00;99.90;;;;;;5127544;27;20097;-78
2023/09/07 04:08:32;;;;;;;7.60;6.90;;;17.00;99.90;;;;;;5131217;27;20042;-75
2023/09/07 04:10:58;;;;;;;7.97;6.43;;;17.00;99.90;;;;;;5138982;27;20046;-78
2023/09/07 04:13:24;;;;;;;8.20;6.95;;;17.00;99.90;;;;;;5123816;27;20057;-73
2023/09/07 04:15:49;;;;;;;7.93;7.10;;;17.00;99.90;;;;;;5139959;27;20455;-74
2023/09/07 04:18:16;;;;;;;7.57;6.88;;;16.90;99.90;;;;;;5119063;27;20134;-74
2023/09/07 04:20:42;;;;;;;9.50;7.53;;;16.90;99.90;;;;;;5121187;27;20139;-75
2023/09/07 04:23:08;;;;;;;8.20;7.32;;;16.90;99.90;;;;;;5127764;27;20157;-78
2023/09/07 04:25:34;;;;;;;9.13;7.03;;;16.90;99.90;;;;;;5140060;27;20084;-75
2023/09/07 04:28:00;;;;;;;8.32;7.38;;;16.80;99.90;;;;;;5141334;27;20042;-74
2023/09/07 04:30:26;;;;;;;8.35;7.32;;;16.80;99.90;;;;;;5140615;27;20062;-75
2023/09/07 04:32:52;;;;;;;7.85;7.05;;;16.80;99.90;;;;;;5141467;27;20050;-74
2023/09/07 04:35:17;;;;;;;9.05;7.70;;;16.70;99.90;;;;;;5141131;27;20094;-76
2023/09/07 04:37:44;;;;;;;8.38;7.57;;;16.70;99.90;;;;;;5141409;27;20042;-73
2023/09/07 04:40:10;;;;;;;8.68;7.93;;;16.70;99.90;;;;;;5140550;27;20059;-73
2023/09/07 04:42:38;;;;;;;9.10;7.07;;;16.70;99.90;;;;;;5140530;27;20046;-73
2023/09/07 04:45:07;;;;;;;9.20;7.82;;;16.70;99.90;;;;;;5138323;27;20063;-73
2023/09/07 04:47:34;;;;;;;10.00;6.88;;;16.70;99.90;;;;;;5144128;27;20087;-75
2023/09/07 04:50:00;;;;;;;7.70;6.85;;;16.70;99.90;;;;;;5111683;27;20787;-74
2023/09/07 04:52:25;;;;;;;9.48;7.97;;;16.70;99.90;;;;;;5143285;27;20047;-75
2023/09/07 04:54:51;;;;;;;9.73;7.50;;;16.70;99.90;;;;;;5141758;27;20057;-74
2023/09/07 04:57:20;;;;;;;8.93;7.95;;;16.70;99.90;;;;;;5143800;27;20038;-76
2023/09/07 04:59:46;;;;;;;9.18;8.00;;;16.70;99.90;;;;;;5123008;27;20059;-75
2023/09/07 05:02:12;;;;;;;10.80;7.78;;;16.80;99.90;;;;;;5144397;27;20090;-76
2023/09/07 05:04:38;;;;;;;8.95;8.05;;;16.80;99.90;;;;;;5142143;27;20051;-75
2023/09/07 05:07:04;;;;;;;12.73;7.82;;;16.80;99.90;;;;;;5124151;27;20058;-75
2023/09/07 05:09:31;;;;;;;8.50;7.70;;;16.80;99.90;;;;;;5139690;27;20051;-75
2023/09/07 05:11:56;;;;;;;7.82;7.07;;;16.80;99.90;;;;;;5144820;27;20049;-75
2023/09/07 05:14:24;;;;;;;8.98;7.75;;;16.80;99.90;;;;;;5140389;27;20043;-74
2023/09/07 05:16:50;;;;;;;11.38;8.35;;;16.80;99.90;;;;;;5107647;27;20475;-76
2023/09/07 05:19:16;;;;;;;7.78;6.85;;;16.80;99.90;;;;;;5104833;27;20097;-73
2023/09/07 05:21:42;;;;;;;8.75;7.63;;;16.80;99.90;;;;;;5134902;27;20058;-76
2023/09/07 05:24:07;;;;;;;10.57;7.90;;;16.80;99.90;;;;;;5105628;27;20048;-74
2023/09/07 05:26:33;;;;;;;11.40;7.70;;;16.80;99.90;;;;;;5136642;27;20081;-74
2023/09/07 05:28:59;;;;;;;10.52;7.88;;;16.80;99.90;;;;;;5142521;27;20054;-75
2023/09/07 05:31:24;;;;;;;11.00;8.15;;;16.80;99.90;;;;;;5143934;27;20050;-75
2023/09/07 05:33:51;;;;;;;8.40;7.53;;;16.80;99.90;;;;;;5107152;27;20462;-76
2023/09/07 05:36:17;;;;;;;10.02;7.75;;;16.90;99.90;;;;;;5130822;27;20061;-75
2023/09/07 05:38:43;;;;;;;11.38;8.10;;;16.90;99.90;;;;;;5129679;27;20387;-74
2023/09/07 05:41:08;;;;;;;9.65;7.53;;;16.90;99.90;;;;;;5144180;27;20074;-75
2023/09/07 05:43:34;;;;;;;9.75;8.73;;;16.90;99.90;;;;;;5136587;27;20596;-75
2023/09/07 05:46:00;;;;;;;9.13;8.18;;;17.00;99.90;;;;;;5105114;27;20103;-74
2023/09/07 05:48:25;;;;;;;9.07;8.18;;;17.00;99.90;;;;;;5138603;27;20089;-75
2023/09/07 05:50:51;;;;;;;11.23;8.10;;;17.00;99.90;;;;;;5123719;27;20486;-73
2023/09/07 05:53:19;;;;;;;10.02;8.25;;;17.10;99.90;;;;;;5142248;27;20062;-79
2023/09/07 05:55:45;;;;;;;10.13;8.43;;;17.10;99.90;;;;;;5124899;27;20150;-74
2023/09/07 05:58:11;;;;;;;8.63;7.78;;;17.10;99.90;;;;;;5109207;27;20437;-74
2023/09/07 06:00:39;;;;;;;10.50;8.27;;;17.20;99.90;;;;;;5143744;27;20078;-74
2023/09/07 06:03:05;;;;;;;11.00;8.35;;;17.20;99.90;;;;;;5129862;27;20047;-74
2023/09/07 06:05:31;;;;;;;11.38;8.93;;;17.30;99.90;;;;;;5143345;27;20054;-76
2023/09/07 06:07:57;;;;;;;11.32;8.43;;;17.30;99.90;;;;;;5141670;27;20050;-74
2023/09/07 06:10:23;;;;;;;11.50;8.60;;;17.30;99.90;;;;;;5140815;27;20134;-75
2023/09/07 06:12:49;;;;;;;10.35;9.20;;;17.40;99.90;;;;;;5104040;27;20274;-75
2023/09/07 06:15:15;;;;;;;11.02;7.45;;;17.50;99.90;;;;;;5133357;27;20055;-77
2023/09/07 06:17:40;;;;;;;12.05;7.95;;;17.50;99.90;;;;;;5129536;27;20043;-75
2023/09/07 06:20:07;;;;;;;12.43;9.18;;;17.50;99.90;;;;;;5111249;27;20050;-77
2023/09/07 06:22:32;;;;;;;11.55;9.38;;;17.60;99.90;;;;;;5129466;27;20046;-74
2023/09/07 06:24:58;;;;;;;9.55;8.63;;;17.70;99.90;;;;;;5122021;27;20047;-75
2023/09/07 06:27:24;;;;;;;15.50;9.23;;;17.70;99.90;;;;;;5136070;27;20305;-74
2023/09/07 06:29:50;;;;;;;9.68;8.65;;;17.80;99.90;;;;;;5124901;27;20055;-74
2023/09/07 06:32:16;;;;;;;10.32;8.70;;;17.90;99.90;;;;;;5143055;27;20050;-76
2023/09/07 06:34:42;;;;;;;12.23;9.85;;;18.00;99.90;;;;;;5141144;27;20400;-76
2023/09/07 06:37:08;;;;;;;10.93;9.48;;;18.10;99.90;;;;;;5143074;27;20125;-75
2023/09/07 06:39:34;;;;;;;12.10;9.18;;;18.20;99.90;;;;;;5130649;27;20639;-74
2023/09/07 06:41:59;;;;;;;10.38;9.27;;;18.30;99.90;;;;;;5126751;27;20084;-76
2023/09/07 06:44:25;;;;;;;10.05;8.70;;;18.40;99.90;;;;;;5138458;27;20499;-75
2023/09/07 06:46:51;;;;;;;10.20;9.13;;;18.50;99.90;;;;;;5137921;27;20647;-75
2023/09/07 06:49:16;;;;;;;11.90;8.93;;;18.70;99.90;;;;;;5132291;27;20047;-76
2023/09/07 06:51:42;;;;;;;9.68;8.68;;;18.80;99.90;;;;;;5118848;27;20126;-74
2023/09/07 06:54:08;;;;;;;12.25;8.63;;;18.90;99.90;;;;;;5101447;27;20058;-74
2023/09/07 06:56:34;;;;;;;10.60;8.73;;;19.00;99.90;;;;;;5133337;27;20047;-74
2023/09/07 06:59:00;;;;;;;13.05;9.35;;;19.10;99.90;;;;;;5118535;27;20047;-73
2023/09/07 07:01:26;;;;;;;10.10;8.63;;;19.30;99.90;;;;;;5102506;27;20042;-76
2023/09/07 07:03:52;;;;;;;10.20;8.73;;;19.50;99.90;;;;;;5102462;27;20120;-75
2023/09/07 07:06:19;;;;;;;12.10;10.07;;;19.60;99.90;;;;;;5123449;27;20039;-74
2023/09/07 07:08:45;;;;;;;10.60;9.35;;;19.80;99.90;;;;;;5136811;27;20410;-75
2023/09/07 07:11:10;;;;;;;10.07;9.10;;;20.00;99.90;;;;;;5138789;27;20058;-75
2023/09/07 07:13:36;;;;;;;10.35;9.00;;;21.00;99.90;;;;;;5134327;27;20051;-74
2023/09/07 07:16:03;;;;;;;10.98;8.32;;;20.30;99.90;;;;;;5134666;27;20423;-75
2023/09/07 07:18:29;;;;;;;14.38;8.85;;;20.50;99.90;;;;;;5133630;27;20047;-76
2023/09/07 07:20:55;;;;;;;11.02;9.20;;;20.60;99.90;;;;;;5135562;27;20046;-75
2023/09/07 07:23:21;;;;;;;9.57;8.43;;;21.00;99.90;;;;;;5137434;27;20133;-77
2023/09/07 07:25:46;;;;;;;9.10;7.68;;;22.20;99.90;;;;;;5133255;27;20042;-75
2023/09/07 07:28:12;;;;;;;8.38;7.57;;;23.90;99.90;;;;;;5098829;27;20157;-75
2023/09/07 07:30:42;;;;;;;9.25;7.35;;;25.60;99.90;;;;;;5120482;27;20146;-75
2023/09/07 07:33:09;;;;;;;8.23;7.30;;;26.90;99.90;;;;;;5118045;27;20070;-77
2023/09/07 07:35:36;;;;;;;9.68;7.65;;;27.90;99.90;;;;;;5140187;27;20121;-77
2023/09/07 07:38:03;;;;;;;10.48;7.40;;;28.80;99.90;;;;;;5136193;27;20047;-76
2023/09/07 07:40:30;;;;;;;8.48;7.68;;;29.50;99.80;;;;;;5136793;27;20058;-76
2023/09/07 07:42:56;;;;;;;9.55;7.18;;;30.10;98.60;;;;;;5128657;27;20066;-77
2023/09/07 07:45:22;;;;;;;9.52;8.02;;;30.50;97.60;;;;;;5116580;27;20233;-76
2023/09/07 07:47:51;;;;;;;8.82;6.60;;;31.00;96.70;;;;;;5139232;27;20804;-76
2023/09/07 07:50:18;;;;;;;7.72;6.95;;;31.50;95.90;;;;;;5132742;27;20487;-77
2023/09/07 07:52:44;;;;;;;10.18;6.75;;;31.70;95.40;;;;;;5118998;27;20057;-74
2023/09/07 07:55:10;;;;;;;10.07;6.93;;;31.80;94.70;;;;;;5134986;27;20146;-74
2023/09/07 07:57:36;;;;;;;8.05;6.50;;;32.00;94.20;;;;;;5100494;27;20146;-74
2023/09/07 08:00:04;;;;;;;8.88;6.40;;;32.20;93.80;;;;;;5115054;27;20107;-75
2023/09/07 08:02:30;;;;;;;10.88;6.55;;;32.40;93.10;;;;;;5134613;27;20050;-75
2023/09/07 08:04:56;;;;;;;8.38;6.82;;;32.70;92.90;;;;;;5117987;27;20054;-74
2023/09/07 08:07:22;;;;;;;6.72;5.97;;;32.80;92.50;;;;;;5099010;27;20090;-74
2023/09/07 08:09:48;;;;;;;6.45;5.82;;;33.10;92.30;;;;;;5127913;27;20146;-75
2023/09/07 08:12:13;;;;;;;11.82;6.60;;;33.20;91.70;;;;;;5138299;27;20888;-74
2023/09/07 08:14:39;;;;;;;6.63;5.97;;;33.10;91.30;;;;;;5136648;27;20038;-74
2023/09/07 08:17:05;;;;;;;15.90;6.85;;;32.60;93.80;;;;;;5136526;27;20391;-76
2023/09/07 08:19:31;;;;;;;7.00;6.25;;;33.30;91.00;;;;;;5131645;27;20146;-75
2023/09/07 08:21:59;;;;;;;6.68;5.97;;;33.50;90.60;;;;;;5136898;27;20563;-75
2023/09/07 08:24:25;;;;;;;7.78;5.68;;;33.50;90.50;;;;;;5130815;27;20043;-74
2023/09/07 08:26:51;;;;;;;7.32;6.38;;;33.70;90.60;;;;;;5127002;27;20047;-74
2023/09/07 08:29:17;;;;;;;11.18;6.35;;;33.90;90.20;;;;;;5142249;27;20055;-76
2023/09/07 08:31:45;;;;;;;7.38;6.60;;;33.90;89.40;;;;;;5142251;27;20089;-74
2023/09/07 08:34:11;;;;;;;9.50;6.50;;;33.80;89.20;;;;;;5123288;27;20053;-74
2023/09/07 08:36:37;;;;;;;8.98;5.85;;;33.70;89.00;;;;;;5135830;27;20042;-77
2023/09/07 08:39:09;;;;;;;8.23;5.88;;;33.80;89.10;;;;;;5138454;27;20130;-74
2023/09/07 08:41:42;;;;;;;8.25;5.53;;;33.80;88.50;;;;;;5138802;27;20057;-74
2023/09/07 08:44:08;;;;;;;;;;;34.00;88.60;;;;;;5134746;27;20047;-75
2023/09/07 08:46:35;;;;;;;6.45;5.60;;;33.90;87.40;;;;;;5123678;27;19923;-76
2023/09/07 08:49:01;;;;;;;7.50;5.15;;;34.10;88.80;;;;;;5117451;27;20149;-75
2023/09/07 08:51:27;;;;;;;9.05;6.78;;;34.40;88.60;;;;;;5128006;27;20086;-75
2023/09/07 08:53:56;;;;;;;6.55;5.13;;;34.40;88.20;;;;;;5134035;27;20038;-76
2023/09/07 08:56:22;;;;;;;7.25;5.65;;;34.60;88.00;;;;;;5123443;27;20885;-76
2023/09/07 08:58:50;;;;;;;7.20;6.50;;;34.70;87.50;;;;;;5117042;27;20046;-74
2023/09/07 09:01:21;;;;;;;8.32;6.65;;;34.80;86.50;;;;;;5132562;27;20047;-75
2023/09/07 09:03:48;;;;;;;7.18;5.80;;;35.00;86.00;;;;;;5117980;27;20081;-76
2023/09/07 09:06:16;;;;;;;7.97;5.97;;;35.00;85.80;;;;;;5138258;27;20120;-74
2023/09/07 09:08:48;;;;;;;5.63;5.00;;;34.90;85.60;;;;;;5140338;27;20071;-75
2023/09/07 09:11:15;;;;;;;7.85;5.25;;;34.70;84.40;;;;;;5138058;27;20331;-74
2023/09/07 09:13:42;;;;;;;7.60;5.38;;;34.50;84.70;;;;;;5140202;27;20077;-85
2023/09/07 09:16:08;;;;;;;9.07;5.88;;;34.30;85.10;;;;;;5111284;27;20085;-76
2023/09/07 09:18:34;;;;;;;6.90;5.63;;;34.50;85.90;;;;;;5123515;27;20067;-76
2023/09/07 09:21:00;;;;;;;6.32;5.72;;;34.50;85.00;;;;;;5140999;27;20549;-74
2023/09/07 09:23:35;;;;;;;5.85;5.28;;;34.40;84.70;;;;;;5117359;27;20055;-77
2023/09/07 09:26:05;;;;;;;7.22;5.18;;;34.50;84.20;;;;;;5143514;27;20069;-76
2023/09/07 09:28:32;;;;;;;6.45;4.90;;;34.40;84.10;;;;;;5125066;27;20035;-76
2023/09/07 09:31:03;;;;;;;6.13;5.53;;;34.60;83.50;;;;;;5139410;27;20089;-76
2023/09/07 09:33:33;;;;;;;5.45;4.95;;;34.40;82.80;;;;;;5114584;27;20570;-76
2023/09/07 09:35:59;;;;;;;5.97;5.00;;;34.40;82.90;;;;;;5136405;27;20039;-76
2023/09/07 09:38:25;;;;;;;5.38;4.95;;;34.30;82.70;;;;;;5134899;27;20436;-79
2023/09/07 09:40:52;;;;;;;9.50;5.43;;;34.30;83.20;;;;;;5137210;27;20047;-79
2023/09/07 09:43:20;;;;;;;8.05;4.95;;;34.10;83.20;;;;;;5141638;27;20050;-78
2023/09/07 09:45:46;;;;;;;6.75;5.68;;;34.20;82.90;;;;;;5143190;27;20054;-79
2023/09/07 09:48:14;;;;;;;6.70;5.18;;;34.20;82.60;;;;;;5142066;27;20111;-79
2023/09/07 09:50:40;;;;;;;7.60;5.28;;;34.20;83.10;;;;;;5131377;27;20042;-79
2023/09/07 09:53:09;;;;;;;7.28;5.40;;;34.50;82.70;;;;;;5142203;27;20051;-78
2023/09/07 09:55:35;;;;;;;6.03;4.93;;;34.50;82.50;;;;;;5131049;27;20161;-79
2023/09/07 09:58:01;;;;;;;6.35;5.00;;;34.80;82.70;;;;;;5122165;27;20043;-79
2023/09/07 10:00:31;;;;;;;5.55;4.90;;;34.90;82.80;;;;;;5105192;27;20417;-79
2023/09/07 10:03:19;;;;;;;5.90;5.20;;;35.20;82.70;;;;;;5125415;27;20438;-79
2023/09/07 10:05:46;;;;;;;6.93;5.45;;;35.20;81.70;;;;;;5113408;27;20105;-79
2023/09/07 10:08:13;;;;;;;6.88;5.75;;;35.10;81.70;;;;;;5142330;27;20054;-79
2023/09/07 10:10:40;;;;;;;6.53;5.35;;;35.30;81.90;;;;;;5124692;27;20062;-79
2023/09/07 10:13:06;;;;;;;5.75;4.65;;;35.10;81.50;;;;;;5135468;27;20051;-79
2023/09/07 10:15:41;;;;;;;9.90;5.43;;;35.10;81.60;;;;;;5134811;27;20551;-79
2023/09/07 10:18:12;;;;;;;5.78;5.22;;;35.10;81.10;;;;;;5133707;27;20208;-79
2023/09/07 10:20:58;;;;;;;7.28;4.80;;;35.30;80.30;;;;;;5130930;27;20042;-79
2023/09/07 10:23:45;;;;;;;7.88;4.57;;;35.40;79.60;;;;;;5136788;27;20071;-79
2023/09/07 10:26:18;;;;;;;6.93;6.22;;;35.30;79.60;;;;;;5135692;27;20175;-79
2023/09/07 10:28:45;;;;;;;5.70;5.10;;;35.20;80.50;;;;;;5139023;27;20489;-79
2023/09/07 10:31:18;;;;;;;6.40;5.15;;;35.60;80.50;;;;;;5143281;27;20424;-79
2023/09/07 10:33:45;;;;;;;5.63;4.00;;;35.90;79.80;;;;;;5139924;27;20509;-78
2023/09/07 10:36:27;;;;;;;7.32;4.75;;;36.00;79.60;;;;;;5126507;27;20099;-79
2023/09/07 10:38:56;;;;;;;6.72;4.22;;;36.20;78.50;;;;;;5134576;27;20722;-79
2023/09/07 10:41:21;;;;;;;7.13;4.93;;;36.10;79.00;;;;;;5134369;27;20482;-78
2023/09/07 10:43:53;;;;;;;5.43;4.32;;;35.90;78.60;;;;;;5129885;27;20074;-79
2023/09/07 10:46:20;;;;;;;5.20;4.70;;;35.40;78.60;;;;;;5139923;27;20179;-79
2023/09/07 10:48:49;;;;;;;6.30;5.28;;;34.80;78.70;;;;;;5137275;27;20327;-80
2023/09/07 10:51:15;;;;;;;5.38;4.88;;;34.00;79.30;;;;;;5133223;27;20042;-79
2023/09/07 10:53:41;;;;;;;7.05;4.03;;;32.90;80.10;;;;;;5141622;27;20087;-78
2023/09/07 10:56:07;;;;;;;4.50;4.10;;;32.00;79.90;;;;;;5129639;27;20354;-78
2023/09/07 10:58:34;;;;;;;4.57;3.80;;;31.40;80.50;;;;;;5140295;27;20589;-78
2023/09/07 11:01:03;;;;;;;5.50;4.30;;;30.90;80.30;;;;;;5111546;27;20153;-79
2023/09/07 11:03:29;;;;;;;4.30;3.85;;;30.60;80.60;;;;;;5141239;27;20065;-78
2023/09/07 11:06:03;;;;;;;5.90;4.32;;;30.30;81.00;;;;;;5128903;27;20840;-78
2023/09/07 11:08:35;;;;;;;5.68;3.92;;;30.20;81.90;;;;;;5108154;27;20079;-78
2023/09/07 11:11:02;;;;;;;4.07;3.67;;;30.10;81.20;;;;;;5122934;27;20525;-78
2023/09/07 11:13:29;;;;;;;5.40;4.13;;;29.90;80.90;;;;;;5114737;27;20050;-80
2023/09/07 11:15:57;;;;;;;4.38;3.97;;;29.90;80.60;;;;;;5132220;27;20039;-78
2023/09/07 11:18:23;;;;;;;8.20;4.28;;;29.90;80.50;;;;;;5133756;27;20073;-78
2023/09/07 11:20:50;;;;;;;5.68;4.18;;;29.80;80.20;;;;;;5117643;27;20042;-79
2023/09/07 11:23:17;;;;;;;3.92;3.60;;;29.70;81.70;;;;;;5102986;27;20099;-79
2023/09/07 11:25:43;;;;;;;4.57;3.78;;;29.80;81.70;;;;;;5113769;27;20046;-79
2023/09/07 11:28:11;;;;;;;6.78;4.38;;;29.80;82.10;;;;;;5094236;28;20057;-78
2023/09/07 11:30:37;;;;;;;6.10;4.30;;;29.90;81.90;;;;;;5116369;27;20043;-78
2023/09/07 11:33:05;;;;;;;5.63;4.22;;;29.80;81.70;;;;;;5117627;27;20047;-80
2023/09/07 11:35:32;;;;;;;7.38;4.25;;;29.80;82.00;;;;;;5106158;27;20043;-80
2023/09/07 11:38:04;;;;;;;6.15;4.00;;;29.80;82.70;;;;;;5118317;27;20793;-79
2023/09/07 11:40:30;;;;;;;6.50;4.25;;;29.90;81.70;;;;;;5119145;27;20046;-79
2023/09/07 11:42:56;;;;;;;5.40;4.38;;;29.90;81.30;;;;;;5113969;27;20055;-79
2023/09/07 11:45:22;;;;;;;6.72;4.40;;;29.90;80.80;;;;;;5107388;28;20051;-79
2023/09/07 11:47:48;;;;;;;5.30;3.95;;;29.90;80.30;;;;;;5105592;28;20578;-79
2023/09/07 11:50:17;;;;;;;4.32;3.92;;;29.90;80.40;;;;;;5109835;27;20051;-79
2023/09/07 11:52:43;;;;;;;4.72;4.20;;;29.90;80.80;;;;;;5115443;27;20498;-79
2023/09/07 11:55:10;;;;;;;5.70;3.97;;;29.90;81.80;;;;;;5119230;27;20522;-78
2023/09/07 11:57:36;;;;;;;4.32;3.95;;;29.90;81.30;;;;;;5118382;27;20164;-79
2023/09/07 12:00:05;;;;;;;5.47;3.75;;;29.90;81.00;;;;;;5114312;27;20055;-80
2023/09/07 12:02:30;;;;;;;6.40;4.40;;;29.90;81.30;;;;;;5116616;27;20047;-79
2023/09/07 12:04:56;;;;;;;7.07;3.75;;;29.90;80.70;;;;;;5122072;27;20047;-79
2023/09/07 12:07:22;;;;;;;4.57;4.05;;;29.90;81.00;;;;;;5114952;27;20039;-79
2023/09/07 12:09:48;;;;;;;6.05;4.70;;;29.90;80.60;;;;;;5099743;27;20243;-79
2023/09/07 12:12:14;;;;;;;4.97;4.07;;;29.90;80.60;;;;;;5119462;27;20051;-81
2023/09/07 12:14:39;;;;;;;4.30;3.90;;;30.00;80.50;;;;;;5119970;27;20631;-79
2023/09/07 12:17:05;;;;;;;6.10;4.20;;;29.90;80.10;;;;;;5132960;27;20069;-77
2023/09/07 12:19:31;;;;;;;5.30;3.83;;;29.90;80.20;;;;;;5117344;27;20047;-79
2023/09/07 12:21:57;;;;;;;4.50;3.95;;;30.00;79.80;;;;;;5120706;27;20104;-78
2023/09/07 12:24:22;;;;;;;5.22;4.22;;;30.10;80.00;;;;;;5123396;27;20769;-78
2023/09/07 12:26:48;;;;;;;5.75;5.13;;;30.10;80.60;;;;;;5119403;27;20762;-78
2023/09/07 12:29:14;;;;;;;5.53;4.45;;;30.10;80.80;;;;;;5114383;27;20054;-78
2023/09/07 12:31:40;;;;;;;7.20;4.20;;;30.10;81.00;;;;;;5123876;27;20574;-79
2023/09/07 12:34:05;;;;;;;4.95;4.55;;;30.10;80.70;;;;;;5138132;27;20572;-79
2023/09/07 12:36:31;;;;;;;5.57;4.25;;;30.20;81.10;;;;;;5121240;27;20116;-78
2023/09/07 12:39:01;;;;;;;4.70;4.25;;;30.20;80.90;;;;;;5122122;27;20046;-78
2023/09/07 12:41:29;;;;;;;8.65;4.30;;;30.20;80.80;;;;;;5140545;27;20065;-77
2023/09/07 12:43:54;;;;;;;5.40;3.80;;;30.20;81.10;;;;;;5108761;27;20550;-79